Araraquara, Brazil
Current Conditions -  °F | °C
As of 7:00 AM on Monday 22 Dec 2014 (Local Time) from SBRP Reporting Station
Overcast Overcast  
Wind Chill: 73°   Ceiling: 9000
Heat Index: 73°   Visibility: 6mi
Dew Point: 68°   Wind: 2mph
Humidity: 83%   Direction: 350°N
Pressure: 29.97"   Gusts: NA
Location:  21.75°S, 48.13°W
Report Text: SBRP 220900Z 35002KT 9999 FEW045 OVC090 23/20 Q1015
Loading
Personal Weather Stations






























Interactive Weather Map New forecast layout! Learn more

10-Day Weather Forecast

Advertisements
Track Severe Weather on mobile